Time;durP1;ratioP1;P1;durP2;ratioP2;P2;SDS_P1;SDS_P2;PMS_P1;PMS_P2;Temp;Humidity;BMP_temperature;BMP_pressure;BME280_temperature;BME280_humidity;BME280_pressure;Samples;Min_cycle;Max_cycle;Signal;HPM_P1;HPM_P2
2022/03/25 00:01:38;;;;;;;14.85;6.97;;;4.90;55.50;;;;;;5045038;28;20045;-68
2022/03/25 00:04:04;;;;;;;16.50;11.13;;;4.80;56.00;;;;;;5047930;28;20043;-68
2022/03/25 00:06:31;;;;;;;18.38;11.20;;;4.60;56.70;;;;;;5050486;28;20095;-68
2022/03/25 00:08:56;;;;;;;16.67;10.57;;;4.70;57.00;;;;;;5054770;28;20048;-68
2022/03/25 00:11:22;;;;;;;16.58;9.80;;;4.90;56.50;;;;;;5050467;28;20033;-68
2022/03/25 00:13:48;;;;;;;9.65;6.38;;;5.00;56.30;;;;;;5049639;28;20041;-69
2022/03/25 00:16:13;;;;;;;10.85;6.05;;;5.00;56.80;;;;;;5049358;28;20127;-69
2022/03/25 00:18:39;;;;;;;10.48;6.28;;;4.90;56.40;;;;;;5054784;28;20044;-69
2022/03/25 00:21:05;;;;;;;11.93;6.32;;;4.60;57.00;;;;;;5051186;28;20044;-68
2022/03/25 00:23:31;;;;;;;10.93;6.90;;;4.40;57.50;;;;;;5050044;28;20049;-68
2022/03/25 00:25:57;;;;;;;11.95;6.78;;;4.30;57.60;;;;;;5053761;28;20029;-68
2022/03/25 00:28:23;;;;;;;9.10;6.20;;;4.30;57.20;;;;;;5049430;28;20048;-68
2022/03/25 00:30:52;;;;;;;11.55;6.47;;;4.30;57.50;;;;;;5049512;28;20036;-68
2022/03/25 00:33:18;;;;;;;12.75;6.90;;;4.40;57.40;;;;;;5050206;28;20037;-68
2022/03/25 00:35:44;;;;;;;10.48;6.75;;;4.50;57.80;;;;;;5050042;28;20059;-68
2022/03/25 00:38:10;;;;;;;10.52;7.25;;;4.40;57.70;;;;;;5053307;28;20054;-68
2022/03/25 00:40:35;;;;;;;10.15;6.78;;;4.50;57.50;;;;;;5056051;28;20028;-68
2022/03/25 00:43:01;;;;;;;11.05;6.63;;;4.30;57.40;;;;;;5033132;28;20136;-68
2022/03/25 00:45:29;;;;;;;11.10;6.47;;;4.20;57.60;;;;;;5047871;28;20428;-68
2022/03/25 00:47:55;;;;;;;9.27;6.93;;;4.10;57.90;;;;;;5047864;28;20040;-68
2022/03/25 00:50:21;;;;;;;12.68;6.82;;;4.20;58.50;;;;;;5048492;28;20108;-68
2022/03/25 00:52:47;;;;;;;10.88;6.07;;;4.30;58.90;;;;;;5052490;28;20037;-68
2022/03/25 00:55:13;;;;;;;10.45;6.72;;;4.30;58.90;;;;;;5048623;28;20071;-68
2022/03/25 00:57:38;;;;;;;10.45;7.13;;;4.30;58.50;;;;;;5047676;28;20040;-69
2022/03/25 01:00:05;;;;;;;11.50;7.00;;;4.30;58.50;;;;;;5048653;28;20120;-68
2022/03/25 01:02:31;;;;;;;13.32;7.57;;;4.40;59.00;;;;;;5046706;28;20122;-68
2022/03/25 01:04:57;;;;;;;12.07;7.18;;;4.40;58.30;;;;;;5048910;28;20044;-68
2022/03/25 01:07:22;;;;;;;11.40;6.50;;;4.30;58.60;;;;;;5049724;28;20048;-68
2022/03/25 01:09:48;;;;;;;10.07;5.88;;;4.20;58.20;;;;;;5047791;28;20040;-68
2022/03/25 01:12:14;;;;;;;13.82;7.25;;;4.10;57.60;;;;;;5053875;28;20539;-68
2022/03/25 01:14:41;;;;;;;9.52;5.80;;;4.00;57.50;;;;;;5046594;28;20080;-68
2022/03/25 01:17:06;;;;;;;11.60;6.32;;;3.90;57.40;;;;;;5052193;28;20150;-68
2022/03/25 01:19:32;;;;;;;10.23;6.28;;;3.70;57.90;;;;;;5050515;28;20932;-69
2022/03/25 01:21:58;;;;;;;15.55;7.43;;;3.60;59.10;;;;;;5047187;28;20044;-68
2022/03/25 01:24:24;;;;;;;10.80;6.20;;;3.70;59.20;;;;;;5046572;28;20032;-68
2022/03/25 01:26:50;;;;;;;11.07;7.07;;;3.60;58.80;;;;;;5036453;28;20076;-68
2022/03/25 01:29:15;;;;;;;11.43;6.55;;;3.60;59.50;;;;;;5050965;28;20210;-69
2022/03/25 01:31:41;;;;;;;10.80;6.70;;;3.70;59.80;;;;;;5050197;28;20797;-68
2022/03/25 01:34:08;;;;;;;9.95;6.25;;;3.80;60.00;;;;;;5047063;28;20052;-68
2022/03/25 01:36:34;;;;;;;8.95;6.45;;;3.80;59.50;;;;;;5051068;28;20107;-69
2022/03/25 01:38:59;;;;;;;14.68;6.18;;;3.70;59.70;;;;;;5044377;28;20111;-68
2022/03/25 01:41:26;;;;;;;11.32;7.18;;;3.50;60.80;;;;;;5049624;28;20495;-68
2022/03/25 01:44:00;;;;;;;9.32;6.88;;;3.60;60.70;;;;;;5048531;28;20072;-68
2022/03/25 01:46:26;;;;;;;9.68;6.85;;;3.70;60.00;;;;;;5050611;28;20053;-68
2022/03/25 01:48:53;;;;;;;10.80;6.40;;;4.00;60.70;;;;;;5051363;28;20052;-68
2022/03/25 01:51:29;;;;;;;9.48;5.72;;;4.00;60.10;;;;;;5047381;28;20048;-68
2022/03/25 01:54:10;;;;;;;11.75;5.03;;;3.90;59.80;;;;;;5050961;28;20032;-68
2022/03/25 01:56:36;;;;;;;12.05;5.82;;;3.70;59.20;;;;;;5049881;28;20132;-68
2022/03/25 01:59:01;;;;;;;10.27;6.22;;;3.50;59.30;;;;;;5053293;28;20033;-68
2022/03/25 02:01:27;;;;;;;7.72;5.18;;;3.30;60.30;;;;;;5054250;28;20194;-68
2022/03/25 02:03:53;;;;;;;14.25;5.45;;;3.30;60.60;;;;;;5055431;28;20033;-68
2022/03/25 02:06:19;;;;;;;11.85;5.13;;;3.30;60.70;;;;;;5052152;28;20033;-68
2022/03/25 02:08:45;;;;;;;9.27;6.03;;;3.40;61.60;;;;;;5054982;28;20052;-68
2022/03/25 02:11:11;;;;;;;11.85;5.72;;;3.50;61.40;;;;;;5036021;28;20560;-68
2022/03/25 02:13:37;;;;;;;10.90;5.97;;;3.60;61.10;;;;;;5051961;28;20544;-68
2022/03/25 02:16:02;;;;;;;10.60;6.78;;;3.60;61.30;;;;;;5057424;28;20065;-68
2022/03/25 02:18:28;;;;;;;10.10;6.38;;;3.70;61.30;;;;;;5049511;28;20042;-68
2022/03/25 02:20:54;;;;;;;7.47;5.30;;;3.80;60.70;;;;;;5041998;28;20464;-68
2022/03/25 02:23:22;;;;;;;8.25;5.25;;;3.70;59.90;;;;;;5050082;28;20700;-68
2022/03/25 02:25:51;;;;;;;13.10;5.43;;;3.60;60.80;;;;;;5055173;28;20045;-68
2022/03/25 02:28:17;;;;;;;9.32;5.43;;;3.30;60.90;;;;;;5054842;28;20051;-68
2022/03/25 02:30:43;;;;;;;9.48;4.65;;;3.00;62.00;;;;;;5050190;28;20048;-68
2022/03/25 02:33:09;;;;;;;7.95;4.85;;;2.90;62.20;;;;;;5051409;28;20045;-68
2022/03/25 02:35:48;;;;;;;9.63;5.93;;;2.90;63.10;;;;;;5058090;28;20083;-68
2022/03/25 02:38:17;;;;;;;9.10;6.00;;;2.80;63.10;;;;;;5053659;28;20503;-67
2022/03/25 02:40:43;;;;;;;9.43;5.18;;;2.80;62.90;;;;;;5053590;28;20398;-68
2022/03/25 02:43:11;;;;;;;12.80;6.40;;;2.80;63.90;;;;;;5051317;28;20040;-68
2022/03/25 02:45:37;;;;;;;9.75;5.85;;;2.80;63.60;;;;;;5053052;28;20033;-68
2022/03/25 02:48:04;;;;;;;10.65;5.80;;;2.90;64.00;;;;;;5051115;28;20072;-68
2022/03/25 02:50:30;;;;;;;7.78;5.40;;;2.90;64.30;;;;;;5037821;28;20036;-68
2022/03/25 02:52:57;;;;;;;9.27;5.55;;;2.90;63.70;;;;;;5054542;28;20462;-68
2022/03/25 02:55:24;;;;;;;12.23;5.78;;;2.80;64.80;;;;;;5049932;28;20043;-68
2022/03/25 02:57:51;;;;;;;8.95;5.10;;;2.80;64.20;;;;;;5054245;28;20501;-68
2022/03/25 03:00:19;;;;;;;8.68;5.60;;;2.80;64.00;;;;;;5051108;28;20033;-68
2022/03/25 03:02:45;;;;;;;9.57;4.88;;;2.80;63.50;;;;;;5055968;28;20087;-68
2022/03/25 03:05:11;;;;;;;8.82;5.40;;;2.70;64.50;;;;;;5050908;28;20040;-68
2022/03/25 03:07:37;;;;;;;10.85;5.63;;;2.60;65.10;;;;;;5055159;28;20385;-68
2022/03/25 03:10:04;;;;;;;8.82;5.60;;;2.50;65.10;;;;;;5049451;28;20059;-68
2022/03/25 03:12:30;;;;;;;10.73;6.00;;;2.50;64.80;;;;;;5050092;28;20036;-68
2022/03/25 03:14:57;;;;;;;11.27;5.97;;;2.50;64.80;;;;;;5047223;28;20048;-68
2022/03/25 03:17:22;;;;;;;8.68;5.25;;;2.60;64.10;;;;;;5053617;28;20098;-68
2022/03/25 03:19:50;;;;;;;7.35;5.38;;;2.70;64.70;;;;;;5048332;28;20052;-68
2022/03/25 03:22:17;;;;;;;11.68;5.72;;;2.60;64.80;;;;;;5055520;28;20033;-68
2022/03/25 03:24:43;;;;;;;9.02;5.80;;;2.60;64.50;;;;;;5053766;28;20025;-68
2022/03/25 03:27:10;;;;;;;8.32;5.45;;;2.50;64.90;;;;;;5042696;28;20439;-68
2022/03/25 03:29:36;;;;;;;7.85;5.38;;;2.50;65.90;;;;;;5052768;28;20072;-67
2022/03/25 03:32:02;;;;;;;7.40;5.30;;;2.40;65.10;;;;;;5057381;28;20036;-68
2022/03/25 03:34:28;;;;;;;7.30;5.20;;;2.40;65.10;;;;;;5053848;28;20033;-68
2022/03/25 03:36:54;;;;;;;11.23;5.20;;;2.40;63.40;;;;;;5053425;28;20048;-68
2022/03/25 03:39:19;;;;;;;8.32;5.07;;;2.20;63.80;;;;;;5055398;28;20111;-69
2022/03/25 03:41:45;;;;;;;10.45;5.53;;;2.20;65.30;;;;;;5047260;28;20041;-68
2022/03/25 03:44:11;;;;;;;9.18;5.78;;;2.20;65.00;;;;;;5054016;28;20032;-68
2022/03/25 03:46:36;;;;;;;9.23;5.38;;;2.20;65.00;;;;;;5054186;28;20032;-68
2022/03/25 03:49:03;;;;;;;9.30;6.15;;;2.20;65.50;;;;;;5046660;28;20131;-67
2022/03/25 03:51:28;;;;;;;9.05;5.47;;;2.20;67.00;;;;;;5050082;28;20525;-67
2022/03/25 03:53:55;;;;;;;7.10;4.78;;;2.20;66.60;;;;;;5059047;28;20048;-68
2022/03/25 03:56:22;;;;;;;9.32;4.95;;;2.20;65.60;;;;;;5053246;28;20510;-68
2022/03/25 03:58:48;;;;;;;7.78;4.90;;;2.10;65.20;;;;;;5056246;28;20070;-67
2022/03/25 04:01:14;;;;;;;8.75;5.25;;;2.00;65.30;;;;;;5051738;28;20363;-68
2022/03/25 04:03:39;;;;;;;7.63;5.38;;;2.00;67.00;;;;;;5051776;28;20047;-67
2022/03/25 04:06:05;;;;;;;8.82;5.60;;;1.90;67.10;;;;;;5055494;28;20489;-67
2022/03/25 04:08:31;;;;;;;15.95;6.30;;;2.00;67.00;;;;;;5050382;28;20056;-68
2022/03/25 04:10:58;;;;;;;10.38;6.28;;;2.00;67.40;;;;;;5051481;28;20033;-68
2022/03/25 04:13:24;;;;;;;12.57;5.97;;;2.00;67.10;;;;;;5049661;28;20037;-67
2022/03/25 04:15:50;;;;;;;9.85;6.43;;;2.10;67.20;;;;;;5050187;28;20444;-68
2022/03/25 04:18:16;;;;;;;11.85;6.72;;;2.20;66.30;;;;;;5045895;28;20051;-67
2022/03/25 04:20:42;;;;;;;14.07;7.03;;;2.40;65.50;;;;;;5047213;28;20037;-67
2022/03/25 04:23:08;;;;;;;13.45;7.50;;;2.50;65.20;;;;;;5046683;28;20033;-68
2022/03/25 04:25:34;;;;;;;10.60;4.63;;;2.70;65.30;;;;;;5029706;28;20037;-68
2022/03/25 04:27:59;;;;;;;8.82;5.93;;;2.50;64.30;;;;;;5037028;28;20068;-68
2022/03/25 04:30:30;;;;;;;8.85;5.10;;;2.20;65.00;;;;;;5048558;28;20102;-67
2022/03/25 04:32:57;;;;;;;9.98;5.55;;;2.00;65.80;;;;;;5059631;28;20032;-67
2022/03/25 04:35:28;;;;;;;11.32;5.95;;;1.90;66.60;;;;;;5051331;28;20044;-68
2022/03/25 04:37:54;;;;;;;9.07;5.65;;;1.90;67.20;;;;;;5034888;28;20032;-67
2022/03/25 04:40:21;;;;;;;11.27;6.45;;;1.90;67.90;;;;;;5058397;28;20028;-67
2022/03/25 04:42:48;;;;;;;16.15;5.95;;;2.00;67.40;;;;;;5051340;28;20068;-68
2022/03/25 04:45:14;;;;;;;10.38;6.70;;;2.00;67.60;;;;;;5053063;28;20037;-67
2022/03/25 04:47:41;;;;;;;8.38;5.10;;;2.00;67.30;;;;;;5051004;28;20112;-67
2022/03/25 04:50:07;;;;;;;9.65;4.82;;;2.10;66.10;;;;;;5052311;28;20071;-67
2022/03/25 04:52:33;;;;;;;7.60;4.82;;;2.00;65.20;;;;;;5048114;28;20839;-68
2022/03/25 04:54:59;;;;;;;9.20;4.82;;;1.80;65.10;;;;;;5051137;28;20044;-67
2022/03/25 04:57:25;;;;;;;6.88;5.13;;;1.70;67.50;;;;;;5051152;28;20037;-67
2022/03/25 04:59:50;;;;;;;12.68;5.13;;;1.60;67.30;;;;;;5048497;28;20686;-67
2022/03/25 05:02:16;;;;;;;8.40;5.78;;;1.60;67.10;;;;;;5047933;28;20068;-68
2022/03/25 05:04:42;;;;;;;8.32;6.22;;;1.60;68.20;;;;;;5055770;28;20691;-67
2022/03/25 05:07:14;;;;;;;35.88;7.25;;;1.60;67.70;;;;;;5054227;28;20036;-67
2022/03/25 05:09:40;;;;;;;11.77;5.68;;;1.80;67.80;;;;;;5050035;28;20052;-67
2022/03/25 05:12:06;;;;;;;11.63;4.70;;;1.80;68.50;;;;;;5051060;28;20033;-68
2022/03/25 05:14:31;;;;;;;7.75;5.28;;;1.60;68.80;;;;;;5055573;28;20151;-67
2022/03/25 05:16:57;;;;;;;8.15;4.78;;;1.60;69.50;;;;;;5050121;28;20044;-67
2022/03/25 05:19:22;;;;;;;7.35;4.65;;;1.70;69.10;;;;;;5054089;28;20106;-68
2022/03/25 05:21:48;;;;;;;9.52;5.20;;;1.80;70.50;;;;;;5050340;28;20193;-68
2022/03/25 05:24:14;;;;;;;10.00;5.03;;;2.10;69.10;;;;;;5052641;28;20473;-67
2022/03/25 05:26:40;;;;;;;8.45;5.45;;;2.20;68.80;;;;;;5049552;28;20043;-68
2022/03/25 05:29:06;;;;;;;9.07;4.93;;;2.40;68.10;;;;;;5048042;28;20519;-67
2022/03/25 05:31:32;;;;;;;7.03;4.95;;;2.50;67.90;;;;;;5056343;28;20036;-67
2022/03/25 05:33:58;;;;;;;10.45;6.40;;;2.60;68.30;;;;;;5055646;28;20048;-67
2022/03/25 05:36:23;;;;;;;11.95;6.05;;;2.80;68.80;;;;;;5056795;28;20691;-68
2022/03/25 05:38:51;;;;;;;13.65;6.35;;;3.10;67.90;;;;;;5055747;28;20083;-67
2022/03/25 05:41:17;;;;;;;10.40;6.30;;;3.30;66.60;;;;;;5054359;28;20040;-68
2022/03/25 05:43:43;;;;;;;16.83;7.18;;;3.40;66.30;;;;;;5054557;28;20091;-67
2022/03/25 05:46:09;;;;;;;8.63;5.68;;;3.40;66.60;;;;;;5055429;28;20070;-68
2022/03/25 05:48:34;;;;;;;12.93;5.80;;;3.50;67.50;;;;;;5056303;28;20045;-68
2022/03/25 05:51:00;;;;;;;38.55;17.50;;;3.60;67.40;;;;;;5055408;28;20037;-67
2022/03/25 05:53:26;;;;;;;14.95;8.40;;;3.70;66.40;;;;;;5031884;28;20112;-68
2022/03/25 05:55:52;;;;;;;12.25;7.78;;;3.70;66.10;;;;;;5038277;28;20098;-68
2022/03/25 05:58:18;;;;;;;13.20;6.78;;;3.90;66.20;;;;;;5051444;28;20488;-70
2022/03/25 06:00:44;;;;;;;19.52;7.50;;;4.20;65.50;;;;;;5055706;28;20076;-70
2022/03/25 06:03:10;;;;;;;21.90;9.27;;;4.60;65.40;;;;;;5053715;28;20032;-70
2022/03/25 06:05:36;;;;;;;20.83;7.85;;;4.80;65.30;;;;;;5052711;28;20049;-70
2022/03/25 06:08:01;;;;;;;12.23;7.82;;;5.00;65.60;;;;;;5058059;28;20370;-70
2022/03/25 06:10:27;;;;;;;16.77;7.88;;;5.30;65.90;;;;;;5057952;28;20048;-67
2022/03/25 06:12:53;;;;;;;13.55;7.68;;;5.60;64.80;;;;;;5049717;28;20803;-68
2022/03/25 06:15:19;;;;;;;15.75;8.15;;;5.90;63.80;;;;;;5056152;28;20670;-67
2022/03/25 06:17:46;;;;;;;15.07;9.30;;;6.00;62.60;;;;;;5057741;28;20037;-68
2022/03/25 06:20:13;;;;;;;15.43;8.80;;;6.20;61.60;;;;;;5050620;28;20176;-68
2022/03/25 06:22:40;;;;;;;24.27;10.25;;;6.50;59.60;;;;;;5050555;28;20041;-68
2022/03/25 06:25:08;;;;;;;13.32;8.52;;;6.70;59.40;;;;;;5055385;28;20127;-68
2022/03/25 06:27:34;;;;;;;12.90;7.22;;;6.80;61.40;;;;;;5053729;28;20064;-67
2022/03/25 06:30:00;;;;;;;10.63;6.60;;;6.80;61.20;;;;;;5050994;28;20182;-68
2022/03/25 06:32:25;;;;;;;13.00;6.95;;;6.90;61.20;;;;;;5051378;28;20411;-67
2022/03/25 06:34:51;;;;;;;17.55;9.50;;;7.10;61.80;;;;;;5053080;28;20411;-68
2022/03/25 06:37:17;;;;;;;14.77;8.93;;;7.30;61.90;;;;;;5035360;28;20071;-68
2022/03/25 06:39:43;;;;;;;17.98;8.70;;;7.50;61.00;;;;;;5057179;28;20036;-67
2022/03/25 06:42:08;;;;;;;11.65;7.15;;;7.70;61.60;;;;;;5049246;28;20084;-68
2022/03/25 06:44:34;;;;;;;16.92;8.00;;;7.80;60.00;;;;;;5050223;28;20577;-68
2022/03/25 06:46:59;;;;;;;16.85;8.70;;;8.00;59.40;;;;;;5039648;28;20764;-67
2022/03/25 06:49:25;;;;;;;16.73;11.10;;;8.10;59.40;;;;;;5056368;28;20056;-68
2022/03/25 06:51:51;;;;;;;22.50;13.68;;;8.10;59.90;;;;;;5058009;28;20048;-68
2022/03/25 06:54:19;;;;;;;26.23;14.35;;;8.20;58.60;;;;;;5033675;28;20049;-68
2022/03/25 06:56:44;;;;;;;27.65;14.48;;;8.40;58.10;;;;;;5055322;28;20571;-68
2022/03/25 06:59:10;;;;;;;23.35;9.73;;;8.60;57.20;;;;;;5054360;28;20045;-67
2022/03/25 07:01:36;;;;;;;14.85;9.15;;;8.80;57.00;;;;;;5057658;28;20040;-68
2022/03/25 07:04:03;;;;;;;22.23;11.85;;;9.00;56.00;;;;;;5057154;28;20041;-68
2022/03/25 07:06:31;;;;;;;19.33;11.00;;;9.30;55.40;;;;;;5057801;28;20106;-68
2022/03/25 07:08:57;;;;;;;16.40;9.77;;;9.50;55.30;;;;;;5055563;28;20048;-68
2022/03/25 07:11:24;;;;;;;17.02;9.80;;;9.90;55.30;;;;;;5052777;28;20529;-68
2022/03/25 07:13:51;;;;;;;15.30;9.15;;;10.10;54.70;;;;;;5053908;28;20401;-68
2022/03/25 07:16:17;;;;;;;16.17;8.75;;;10.50;53.90;;;;;;5053912;28;20037;-68
2022/03/25 07:18:43;;;;;;;15.45;9.38;;;10.80;53.40;;;;;;5055846;28;20111;-67
2022/03/25 07:21:09;;;;;;;14.10;9.35;;;11.10;53.00;;;;;;5055142;28;20139;-68
2022/03/25 07:23:34;;;;;;;11.50;8.30;;;11.20;52.10;;;;;;5058682;28;20120;-68
2022/03/25 07:26:02;;;;;;;15.18;8.40;;;11.30;51.80;;;;;;5054361;28;20124;-68
2022/03/25 07:28:27;;;;;;;16.25;9.45;;;11.40;50.90;;;;;;5053928;28;20033;-67
2022/03/25 07:30:53;;;;;;;16.58;8.88;;;11.50;50.90;;;;;;5051318;28;20040;-68
2022/03/25 07:33:19;;;;;;;13.15;8.50;;;11.50;50.60;;;;;;5060911;28;20411;-68
2022/03/25 07:35:44;;;;;;;17.73;8.43;;;11.60;50.70;;;;;;5041829;28;20068;-68
2022/03/25 07:38:10;;;;;;;14.40;8.35;;;11.90;50.70;;;;;;5052815;28;20045;-68
2022/03/25 07:40:36;;;;;;;11.40;7.95;;;12.10;50.80;;;;;;5050946;28;20033;-68
2022/03/25 07:43:01;;;;;;;16.08;9.32;;;12.40;50.90;;;;;;5056459;28;20033;-68
2022/03/25 07:45:27;;;;;;;15.70;8.63;;;12.50;50.30;;;;;;5048768;28;20037;-68
2022/03/25 07:47:53;;;;;;;14.82;9.27;;;12.80;49.50;;;;;;5051635;28;20048;-68
2022/03/25 07:50:22;;;;;;;17.70;9.48;;;13.00;48.40;;;;;;5049770;28;20512;-68
2022/03/25 07:52:49;;;;;;;21.23;10.30;;;13.20;47.00;;;;;;5054264;28;20067;-68
2022/03/25 07:55:18;;;;;;;27.23;10.02;;;13.40;45.00;;;;;;5057366;28;20119;-68
2022/03/25 07:57:45;;;;;;;15.60;9.63;;;13.30;44.30;;;;;;5066447;28;20024;-68
2022/03/25 08:00:12;;;;;;;14.60;10.07;;;13.40;44.50;;;;;;5056823;28;20105;-68
2022/03/25 08:02:43;;;;;;;16.60;10.77;;;13.50;44.80;;;;;;5051667;28;20476;-68
2022/03/25 08:05:10;;;;;;;16.85;10.15;;;13.60;44.60;;;;;;5051880;28;20108;-68
2022/03/25 08:07:48;;;;;;;18.50;10.10;;;13.60;43.00;;;;;;5053616;28;20093;-68
2022/03/25 08:10:20;;;;;;;17.92;8.93;;;13.60;43.00;;;;;;5045865;28;20045;-68
2022/03/25 08:12:46;;;;;;;16.95;9.55;;;13.70;43.50;;;;;;5052994;28;20064;-68
2022/03/25 08:15:13;;;;;;;18.00;9.45;;;13.80;43.30;;;;;;5049864;28;20064;-68
2022/03/25 08:17:52;;;;;;;16.98;9.77;;;14.00;42.50;;;;;;5042352;28;20024;-68
2022/03/25 08:20:41;;;;;;;15.48;11.13;;;14.10;42.50;;;;;;5045634;28;20537;-68
2022/03/25 08:23:11;;;;;;;16.60;10.80;;;14.10;41.50;;;;;;5051648;28;20075;-68
2022/03/25 08:28:22;;;;;;;20.90;11.07;;;14.10;40.40;;;;;;5058344;28;20044;-67
2022/03/25 08:30:48;;;;;;;24.10;12.23;;;14.20;40.70;;;;;;5047042;28;20044;-67
2022/03/25 08:33:14;;;;;;;16.95;11.80;;;14.30;40.30;;;;;;5043236;28;20059;-68
2022/03/25 08:35:41;;;;;;;21.08;12.85;;;14.30;40.20;;;;;;5045239;28;20040;-68
2022/03/25 08:38:08;;;;;;;20.08;13.10;;;14.40;40.00;;;;;;5052290;28;20028;-67
2022/03/25 08:40:34;;;;;;;21.98;12.85;;;14.40;39.50;;;;;;5049607;28;20739;-70
2022/03/25 08:43:02;;;;;;;18.58;12.40;;;14.40;39.40;;;;;;5053974;28;20073;-67
2022/03/25 08:45:28;;;;;;;17.92;12.20;;;14.40;39.60;;;;;;5036092;28;20512;-68
2022/03/25 08:47:54;;;;;;;21.17;13.48;;;14.50;38.50;;;;;;5030702;28;20045;-67
2022/03/25 08:50:22;;;;;;;20.63;13.00;;;14.50;39.30;;;;;;5053205;28;20048;-67
2022/03/25 08:52:49;;;;;;;22.48;12.73;;;14.60;38.60;;;;;;5054269;28;20037;-68
2022/03/25 08:55:16;;;;;;;18.10;13.07;;;14.70;38.90;;;;;;5055123;28;20071;-68
2022/03/25 08:57:42;;;;;;;20.73;12.43;;;14.80;38.50;;;;;;5052401;28;20122;-66
2022/03/25 09:00:11;;;;;;;20.30;12.73;;;14.80;37.40;;;;;;5051177;28;20814;-67
2022/03/25 09:02:43;;;;;;;19.27;12.48;;;14.80;38.30;;;;;;5061016;28;20032;-67
2022/03/25 09:05:10;;;;;;;19.90;12.23;;;15.00;38.00;;;;;;5052459;28;20093;-67
2022/03/25 09:07:37;;;;;;;20.08;12.68;;;15.20;37.30;;;;;;5052975;28;20037;-67
2022/03/25 09:10:09;;;;;;;19.15;12.82;;;15.30;37.50;;;;;;5044392;28;20098;-68
2022/03/25 09:12:36;;;;;;;18.90;13.18;;;15.30;38.10;;;;;;5046314;28;20178;-68
2022/03/25 09:15:04;;;;;;;16.77;11.80;;;15.40;38.20;;;;;;5049443;28;20535;-68
2022/03/25 09:17:29;;;;;;;22.02;13.05;;;15.60;37.60;;;;;;5055470;28;20045;-67
2022/03/25 09:19:56;;;;;;;19.00;12.55;;;15.60;36.90;;;;;;5051536;28;20037;-66
2022/03/25 09:22:21;;;;;;;15.77;12.10;;;15.70;36.50;;;;;;5058917;28;20115;-67
2022/03/25 09:24:47;;;;;;;19.95;13.40;;;15.80;37.30;;;;;;5053295;28;20170;-68
2022/03/25 09:27:13;;;;;;;17.05;12.43;;;15.90;36.40;;;;;;5054480;28;20053;-67
2022/03/25 09:29:39;;;;;;;24.45;12.93;;;16.00;36.40;;;;;;5035488;28;20048;-67
2022/03/25 09:32:05;;;;;;;20.92;13.10;;;15.90;35.30;;;;;;5052476;28;20093;-67
2022/03/25 09:37:16;;;;;;;22.77;13.25;;;15.70;36.00;;;;;;5058229;28;20078;-68
2022/03/25 09:39:41;;;;;;;17.55;13.45;;;15.80;36.10;;;;;;5054588;28;20033;-68
2022/03/25 09:42:07;;;;;;;22.48;12.82;;;15.90;36.30;;;;;;5034799;28;20354;-68
2022/03/25 09:44:34;;;;;;;22.55;11.98;;;15.90;35.40;;;;;;5052754;28;20532;-68
2022/03/25 09:47:00;;;;;;;18.73;11.65;;;16.00;35.90;;;;;;5056227;28;20056;-68
2022/03/25 09:49:26;;;;;;;16.42;12.43;;;16.10;35.10;;;;;;5039817;28;20106;-69
2022/03/25 09:51:52;;;;;;;18.75;12.25;;;16.10;35.90;;;;;;5057924;28;20048;-69
2022/03/25 09:54:18;;;;;;;25.17;13.80;;;16.20;36.20;;;;;;5054716;28;20032;-68
2022/03/25 09:56:44;;;;;;;17.90;11.90;;;16.30;35.60;;;;;;5053432;28;20130;-69
2022/03/25 09:59:16;;;;;;;19.17;12.88;;;16.50;35.40;;;;;;5050083;28;20045;-69
2022/03/25 10:01:41;;;;;;;16.90;11.52;;;16.60;35.70;;;;;;5052526;28;20116;-68
2022/03/25 10:04:07;;;;;;;21.73;13.48;;;16.70;34.90;;;;;;5057552;28;20041;-68
2022/03/25 10:06:45;;;;;;;20.90;12.88;;;16.70;35.30;;;;;;5047461;28;20041;-68
2022/03/25 10:09:21;;;;;;;22.58;12.57;;;16.70;35.10;;;;;;5052163;28;20052;-68
2022/03/25 10:11:47;;;;;;;20.05;12.98;;;16.80;34.70;;;;;;5054049;28;20051;-68
2022/03/25 10:14:27;;;;;;;18.60;12.93;;;16.80;34.70;;;;;;5051523;28;20079;-68
2022/03/25 10:16:54;;;;;;;16.48;11.90;;;16.90;34.40;;;;;;5058754;28;20040;-69
2022/03/25 10:19:21;;;;;;;23.83;13.00;;;16.90;34.90;;;;;;5052539;28;20037;-68
2022/03/25 10:22:01;;;;;;;18.02;12.25;;;17.10;35.30;;;;;;5053872;28;20123;-68
2022/03/25 10:24:39;;;;;;;25.45;12.70;;;17.30;35.00;;;;;;5054203;28;20049;-68
2022/03/25 10:27:07;;;;;;;18.35;12.63;;;17.40;34.50;;;;;;5055577;28;20076;-68
2022/03/25 10:29:36;;;;;;;16.45;11.90;;;17.30;33.80;;;;;;5049188;28;20079;-68
2022/03/25 10:32:04;;;;;;;18.17;12.48;;;17.10;34.20;;;;;;5054799;28;20206;-68
2022/03/25 10:34:30;;;;;;;16.98;12.73;;;17.20;34.40;;;;;;5049974;28;20556;-68
2022/03/25 10:37:04;;;;;;;20.35;12.07;;;17.20;34.30;;;;;;5050256;28;20051;-68
2022/03/25 10:39:31;;;;;;;22.63;12.02;;;17.40;34.20;;;;;;5053460;28;20074;-68
2022/03/25 10:42:03;;;;;;;18.15;11.93;;;17.50;34.80;;;;;;5056264;28;20079;-68
2022/03/25 10:44:38;;;;;;;17.63;12.45;;;17.60;34.50;;;;;;5054648;28;20591;-68
2022/03/25 10:47:16;;;;;;;18.55;12.18;;;17.70;34.80;;;;;;5056300;28;20032;-69
2022/03/25 10:49:43;;;;;;;20.73;12.45;;;17.90;35.10;;;;;;5056696;28;20051;-68
2022/03/25 10:52:32;;;;;;;18.88;11.43;;;18.00;33.60;;;;;;5051474;28;20094;-69
2022/03/25 10:55:19;;;;;;;17.15;10.30;;;18.00;33.50;;;;;;5051633;28;20397;-69
2022/03/25 10:57:47;;;;;;;20.25;11.90;;;18.00;33.90;;;;;;5052687;28;20083;-69
2022/03/25 11:00:13;;;;;;;18.58;11.95;;;18.20;33.20;;;;;;5053875;28;20028;-69
2022/03/25 11:02:39;;;;;;;17.83;11.70;;;18.20;33.50;;;;;;5033643;28;20047;-69
2022/03/25 11:05:09;;;;;;;16.38;10.68;;;18.30;33.50;;;;;;5056357;28;20028;-69
2022/03/25 11:07:40;;;;;;;17.85;11.50;;;18.30;33.40;;;;;;5050539;28;20045;-69
2022/03/25 11:10:06;;;;;;;17.03;11.33;;;18.50;33.80;;;;;;5056210;28;20044;-69
2022/03/25 11:12:33;;;;;;;15.38;11.05;;;18.70;33.30;;;;;;5054417;28;20355;-69
2022/03/25 11:14:59;;;;;;;17.30;11.15;;;18.80;33.00;;;;;;5055010;28;20044;-69
2022/03/25 11:17:27;;;;;;;13.82;10.35;;;18.90;32.30;;;;;;5051933;28;20037;-69
2022/03/25 11:19:56;;;;;;;13.95;10.18;;;18.80;32.20;;;;;;5057027;28;20094;-69
2022/03/25 11:22:24;;;;;;;12.98;9.05;;;18.90;32.00;;;;;;5056395;28;20098;-68
2022/03/25 11:24:53;;;;;;;13.40;8.93;;;18.70;31.60;;;;;;5042886;28;20107;-68
2022/03/25 11:27:21;;;;;;;11.50;8.13;;;18.70;31.30;;;;;;5053031;28;20044;-68
2022/03/25 11:29:50;;;;;;;9.50;6.88;;;18.60;31.40;;;;;;5054510;28;20045;-68
2022/03/25 11:32:16;;;;;;;12.85;7.20;;;18.70;32.20;;;;;;5052537;28;20657;-68
2022/03/25 11:35:03;;;;;;;10.70;6.53;;;18.80;31.20;;;;;;5052808;28;20486;-68
2022/03/25 11:37:32;;;;;;;11.15;5.57;;;18.90;30.80;;;;;;5039976;28;20061;-68
2022/03/25 11:40:13;;;;;;;8.27;5.63;;;18.80;30.50;;;;;;5062701;28;20037;-69
2022/03/25 11:42:43;;;;;;;6.68;4.80;;;18.90;30.60;;;;;;5056698;28;20040;-68
2022/03/25 11:45:21;;;;;;;13.27;7.85;;;19.00;31.40;;;;;;5055681;28;20028;-68
2022/03/25 11:48:02;;;;;;;9.02;6.50;;;19.20;30.70;;;;;;5050288;28;20064;-69
2022/03/25 11:50:42;;;;;;;12.70;6.72;;;19.10;30.30;;;;;;5052051;28;20037;-69
2022/03/25 11:53:13;;;;;;;8.48;5.80;;;19.10;30.60;;;;;;5054325;28;20036;-68
2022/03/25 11:56:02;;;;;;;12.10;5.80;;;19.10;30.30;;;;;;5055584;28;20041;-68
2022/03/25 11:58:30;;;;;;;12.68;5.13;;;19.30;29.90;;;;;;5054961;28;20028;-69
2022/03/25 12:01:26;;;;;;;8.77;6.05;;;19.20;30.90;;;;;;5050918;28;20490;-68
2022/03/25 12:03:53;;;;;;;8.45;5.93;;;19.40;31.00;;;;;;5036805;28;20063;-68
2022/03/25 12:06:25;;;;;;;9.02;5.43;;;19.40;30.60;;;;;;5040687;28;20080;-69
2022/03/25 12:09:18;;;;;;;7.75;5.85;;;19.30;31.10;;;;;;5054085;28;20403;-69
2022/03/25 12:11:51;;;;;;;8.90;5.68;;;19.30;30.30;;;;;;5056396;28;20103;-68
2022/03/25 12:14:27;;;;;;;10.13;6.22;;;19.30;30.60;;;;;;5059436;28;20145;-69
2022/03/25 12:16:54;;;;;;;8.38;5.68;;;19.50;30.90;;;;;;5053288;28;20027;-69
2022/03/25 12:19:28;;;;;;;9.55;6.20;;;19.60;31.00;;;;;;5056179;28;20102;-69
2022/03/25 12:22:02;;;;;;;9.23;6.57;;;19.60;30.40;;;;;;5052895;28;20040;-69
2022/03/25 12:24:30;;;;;;;10.43;6.88;;;19.80;31.20;;;;;;5055774;28;20037;-69
2022/03/25 12:27:05;;;;;;;13.02;7.28;;;19.90;30.50;;;;;;5040121;28;20033;-68
2022/03/25 12:29:33;;;;;;;9.07;7.22;;;19.90;31.00;;;;;;5054839;28;20041;-69
2022/03/25 12:32:02;;;;;;;11.27;6.90;;;19.80;31.40;;;;;;5055103;28;20044;-69
2022/03/25 12:34:52;;;;;;;8.80;6.95;;;19.70;30.80;;;;;;5040394;28;20488;-69
2022/03/25 12:37:24;;;;;;;11.40;6.88;;;19.60;29.90;;;;;;5041244;28;20064;-69
2022/03/25 12:39:50;;;;;;;10.10;7.35;;;19.60;31.10;;;;;;5050390;28;20044;-69
2022/03/25 12:42:15;;;;;;;8.77;6.47;;;19.70;30.80;;;;;;5054119;28;20523;-69
2022/03/25 12:44:41;;;;;;;8.95;6.85;;;19.70;30.50;;;;;;5046656;28;20076;-69
2022/03/25 12:47:09;;;;;;;8.70;6.70;;;19.80;30.80;;;;;;5050215;28;20089;-69
2022/03/25 12:49:34;;;;;;;14.85;6.68;;;20.10;30.60;;;;;;5035615;28;20060;-69
2022/03/25 12:52:02;;;;;;;12.25;6.25;;;20.10;30.80;;;;;;5050556;28;20040;-69